createdAt,value
2023-03-03T00:00:33.144Z,64.80
2023-03-03T00:03:02.386Z,64.80
2023-03-03T00:05:30.484Z,64.80
2023-03-03T00:07:58.519Z,64.80
2023-03-03T00:10:26.575Z,64.80
2023-03-03T00:12:56.006Z,64.80
2023-03-03T00:15:24.782Z,64.80
2023-03-03T00:17:52.960Z,64.90
2023-03-03T00:20:31.060Z,64.90
2023-03-03T00:23:00.417Z,64.80
2023-03-03T00:25:30.208Z,64.80
2023-03-03T00:28:01.823Z,64.90
2023-03-03T00:30:29.860Z,64.80
2023-03-03T00:32:57.911Z,64.90
2023-03-03T00:35:27.008Z,64.90
2023-03-03T00:37:56.784Z,64.90
2023-03-03T00:40:25.492Z,64.90
2023-03-03T00:42:54.666Z,65.00
2023-03-03T00:45:31.130Z,64.90
2023-03-03T00:48:08.982Z,65.00
2023-03-03T00:50:37.114Z,64.90
2023-03-03T00:53:07.114Z,65.00
2023-03-03T00:55:35.639Z,65.00
2023-03-03T00:58:04.091Z,65.00
2023-03-03T01:00:34.289Z,64.90
2023-03-03T01:03:04.189Z,65.00
2023-03-03T01:05:32.228Z,65.00
2023-03-03T01:08:00.307Z,65.00
2023-03-03T01:10:28.529Z,65.00
2023-03-03T01:12:57.793Z,65.00
2023-03-03T01:15:25.841Z,65.00
2023-03-03T01:17:59.363Z,65.00
2023-03-03T01:20:27.432Z,65.00
2023-03-03T01:22:55.554Z,65.10
2023-03-03T01:25:23.551Z,65.10
2023-03-03T01:27:51.607Z,65.10
2023-03-03T01:30:19.792Z,65.10
2023-03-03T01:32:47.846Z,65.10
2023-03-03T01:35:17.237Z,65.10
2023-03-03T01:37:45.282Z,65.20
2023-03-03T01:40:15.555Z,65.10
2023-03-03T01:42:43.652Z,65.10
2023-03-03T01:45:19.563Z,65.10
2023-03-03T01:47:50.014Z,65.20
2023-03-03T01:50:28.767Z,65.10
2023-03-03T01:52:56.805Z,65.10
2023-03-03T01:55:26.366Z,65.20
2023-03-03T01:57:57.767Z,65.20
2023-03-03T02:00:26.007Z,65.20
2023-03-03T02:02:54.092Z,65.20
2023-03-03T02:05:23.517Z,65.20
2023-03-03T02:07:51.604Z,65.30
2023-03-03T02:10:20.094Z,65.30
2023-03-03T02:12:50.415Z,65.30
2023-03-03T02:15:20.505Z,65.30
2023-03-03T02:17:48.626Z,65.30
2023-03-03T02:20:19.149Z,65.30
2023-03-03T02:22:52.215Z,65.30
2023-03-03T02:25:24.132Z,65.30
2023-03-03T02:27:53.547Z,65.30
2023-03-03T02:30:22.861Z,65.20
2023-03-03T02:32:50.902Z,65.30
2023-03-03T02:35:32.931Z,65.40
2023-03-03T02:38:06.127Z,65.30
2023-03-03T02:40:35.968Z,65.30
2023-03-03T02:43:05.411Z,65.30
2023-03-03T02:45:33.575Z,65.30
2023-03-03T02:48:01.688Z,65.30
2023-03-03T02:50:29.717Z,65.30
2023-03-03T02:52:57.759Z,65.30
2023-03-03T02:55:25.872Z,65.30
2023-03-03T02:57:53.892Z,65.30
2023-03-03T03:00:23.495Z,65.40
2023-03-03T03:02:51.505Z,65.40
2023-03-03T03:05:19.548Z,65.40
2023-03-03T03:07:47.556Z,65.40
2023-03-03T03:10:15.981Z,65.40
2023-03-03T03:12:44.028Z,65.40
2023-03-03T03:15:12.547Z,65.40
2023-03-03T03:17:42.278Z,65.40
2023-03-03T03:20:11.488Z,65.40
2023-03-03T03:22:39.521Z,65.40
2023-03-03T03:25:08.393Z,65.40
2023-03-03T03:27:36.544Z,65.50
2023-03-03T03:30:04.905Z,65.50
2023-03-03T03:32:32.931Z,65.50
2023-03-03T03:35:02.432Z,65.50
2023-03-03T03:37:30.473Z,65.50
2023-03-03T03:39:58.547Z,65.50
2023-03-03T03:42:26.584Z,65.50
2023-03-03T03:44:54.679Z,65.60
2023-03-03T03:47:22.728Z,65.50
2023-03-03T03:49:50.799Z,65.50
2023-03-03T03:52:20.218Z,65.50
2023-03-03T03:54:48.236Z,65.50
2023-03-03T03:57:16.275Z,65.60
2023-03-03T03:59:44.545Z,65.60
2023-03-03T04:02:12.628Z,65.50
2023-03-03T04:04:40.714Z,65.50
2023-03-03T04:07:10.759Z,65.50
2023-03-03T04:09:41.005Z,65.60
2023-03-03T04:12:09.092Z,65.60
2023-03-03T04:14:37.180Z,65.60
2023-03-03T04:17:05.241Z,65.60
2023-03-03T04:19:33.257Z,65.60
2023-03-03T04:22:01.328Z,65.70
2023-03-03T04:24:29.373Z,65.70
2023-03-03T04:26:58.807Z,65.70
2023-03-03T04:29:26.926Z,65.60
2023-03-03T04:31:55.242Z,65.60
2023-03-03T04:34:23.318Z,65.60
2023-03-03T04:36:51.687Z,65.60
2023-03-03T04:39:19.726Z,65.60
2023-03-03T04:41:52.100Z,65.60
2023-03-03T04:44:21.500Z,65.60
2023-03-03T04:46:49.624Z,65.60
2023-03-03T04:49:17.647Z,65.60
2023-03-03T04:51:45.740Z,65.60
2023-03-03T04:54:13.763Z,65.60
2023-03-03T04:56:41.776Z,65.60
2023-03-03T04:59:09.815Z,65.60
2023-03-03T05:01:39.348Z,65.60
2023-03-03T05:04:07.685Z,65.60
2023-03-03T05:06:35.733Z,65.60
2023-03-03T05:09:03.831Z,65.60
2023-03-03T05:11:32.590Z,65.60
2023-03-03T05:14:04.144Z,65.60
2023-03-03T05:16:34.130Z,65.60
2023-03-03T05:19:03.527Z,65.70
2023-03-03T05:21:31.586Z,65.70
2023-03-03T05:23:59.608Z,65.60
2023-03-03T05:26:27.697Z,65.60
2023-03-03T05:28:55.729Z,65.70
2023-03-03T05:31:24.051Z,65.60
2023-03-03T05:33:52.110Z,65.60
2023-03-03T05:36:21.544Z,65.60
2023-03-03T05:38:49.751Z,65.60
2023-03-03T05:41:17.792Z,65.60
2023-03-03T05:43:45.976Z,65.60
2023-03-03T05:46:14.040Z,65.60
2023-03-03T05:48:42.102Z,65.60
2023-03-03T05:51:10.137Z,65.60
2023-03-03T05:53:41.642Z,65.60
2023-03-03T05:56:09.661Z,65.70
2023-03-03T05:58:46.205Z,65.70
2023-03-03T06:01:14.242Z,65.70
2023-03-03T06:03:42.337Z,65.60
2023-03-03T06:06:10.636Z,65.70
2023-03-03T06:08:38.719Z,65.70
2023-03-03T06:11:08.233Z,65.60
2023-03-03T06:13:40.958Z,65.60
2023-03-03T06:16:09.464Z,65.60
2023-03-03T06:18:37.533Z,65.60
2023-03-03T06:21:05.851Z,65.70
2023-03-03T06:23:33.894Z,65.70
2023-03-03T06:26:01.949Z,65.70
2023-03-03T06:28:31.380Z,65.70
2023-03-03T06:30:59.420Z,65.70
2023-03-03T06:33:27.476Z,65.70
2023-03-03T06:35:55.806Z,65.70
2023-03-03T06:38:23.868Z,65.70
2023-03-03T06:40:51.876Z,65.70
2023-03-03T06:43:20.586Z,65.70
2023-03-03T06:45:50.033Z,65.70
2023-03-03T06:48:18.117Z,65.70
2023-03-03T06:50:46.190Z,65.70
2023-03-03T06:53:14.802Z,65.70
2023-03-03T06:55:44.779Z,65.70
2023-03-03T06:58:14.826Z,65.70
2023-03-03T07:00:44.168Z,65.70
2023-03-03T07:03:17.870Z,65.70
2023-03-03T07:05:46.032Z,65.70
2023-03-03T07:08:15.541Z,65.70
2023-03-03T07:10:43.688Z,65.70
2023-03-03T07:13:29.890Z,65.70
2023-03-03T07:15:58.549Z,65.70
2023-03-03T07:18:46.733Z,65.70
2023-03-03T07:21:17.746Z,65.70
2023-03-03T07:23:46.334Z,65.70
2023-03-03T07:26:15.148Z,65.70
2023-03-03T07:28:43.898Z,65.70
2023-03-03T07:31:32.233Z,65.60
2023-03-03T07:34:02.343Z,65.70
2023-03-03T07:36:31.741Z,65.70
2023-03-03T07:39:01.460Z,65.70
2023-03-03T07:41:29.557Z,65.70
2023-03-03T07:44:06.581Z,65.70
2023-03-03T07:46:38.052Z,65.80
2023-03-03T07:49:15.941Z,65.80
2023-03-03T07:51:43.972Z,65.70
2023-03-03T07:54:31.457Z,65.80
2023-03-03T07:57:00.765Z,65.80
2023-03-03T07:59:28.808Z,65.80
2023-03-03T08:01:58.242Z,65.80
2023-03-03T08:04:30.645Z,65.80
2023-03-03T08:06:59.162Z,65.70
2023-03-03T08:09:39.363Z,65.80
2023-03-03T08:12:30.227Z,65.80
2023-03-03T08:14:59.030Z,65.80
2023-03-03T08:17:28.872Z,65.80
2023-03-03T08:19:58.320Z,65.80
2023-03-03T08:22:30.376Z,65.80
2023-03-03T08:24:58.405Z,65.90
2023-03-03T08:27:26.481Z,65.90
2023-03-03T08:29:54.503Z,65.80
2023-03-03T08:32:22.884Z,65.80
2023-03-03T08:34:51.003Z,65.80
2023-03-03T08:37:20.398Z,65.80
2023-03-03T08:39:48.466Z,65.80
2023-03-03T08:42:18.448Z,65.80
2023-03-03T08:44:46.500Z,65.90
2023-03-03T08:47:14.542Z,65.80
2023-03-03T08:49:42.588Z,65.90
2023-03-03T08:52:10.623Z,65.90
2023-03-03T08:54:40.043Z,65.90
2023-03-03T08:57:08.091Z,65.90
2023-03-03T08:59:39.038Z,65.90
2023-03-03T09:02:07.172Z,65.80
2023-03-03T09:04:35.526Z,65.90
2023-03-03T09:07:03.553Z,65.90
2023-03-03T09:09:31.648Z,65.90
2023-03-03T09:12:03.304Z,65.90
2023-03-03T09:14:31.300Z,65.90
2023-03-03T09:17:09.161Z,65.90
2023-03-03T09:19:37.540Z,65.90
2023-03-03T09:22:21.621Z,66.00
2023-03-03T09:24:49.980Z,65.90
2023-03-03T09:27:21.664Z,65.90
2023-03-03T09:29:49.707Z,65.90
2023-03-03T09:32:32.700Z,65.90
2023-03-03T09:35:27.699Z,66.00
2023-03-03T09:37:55.732Z,65.90
2023-03-03T09:40:38.586Z,66.00
2023-03-03T09:43:08.541Z,66.00
2023-03-03T09:45:48.441Z,66.00
2023-03-03T09:48:50.616Z,66.00
2023-03-03T09:51:39.534Z,66.00
2023-03-03T09:54:14.538Z,66.00
2023-03-03T09:56:44.668Z,66.00
2023-03-03T09:59:24.157Z,66.00
2023-03-03T10:01:57.753Z,66.00
2023-03-03T10:04:56.268Z,66.00
2023-03-03T10:07:37.187Z,66.00
2023-03-03T10:10:13.360Z,66.00
2023-03-03T10:12:43.227Z,66.00
2023-03-03T10:15:19.162Z,66.00
2023-03-03T10:17:50.918Z,66.00
2023-03-03T10:20:25.414Z,66.00
2023-03-03T10:22:54.608Z,66.00
2023-03-03T10:25:27.695Z,66.00
2023-03-03T10:28:22.325Z,66.00
2023-03-03T10:31:05.555Z,66.00
2023-03-03T10:33:40.754Z,66.00
2023-03-03T10:36:32.628Z,66.00
2023-03-03T10:39:05.695Z,66.00
2023-03-03T10:41:43.087Z,66.10
2023-03-03T10:44:36.692Z,66.00
2023-03-03T10:47:31.719Z,66.10
2023-03-03T10:50:05.509Z,66.10
2023-03-03T10:52:38.124Z,66.10
2023-03-03T10:55:20.801Z,66.10
2023-03-03T10:57:53.256Z,66.10
2023-03-03T11:00:23.778Z,66.10
2023-03-03T11:03:03.160Z,66.10
2023-03-03T11:05:34.188Z,66.10
2023-03-03T11:08:04.343Z,66.10
2023-03-03T11:10:40.165Z,66.10
2023-03-03T11:13:13.704Z,66.10
2023-03-03T11:16:00.856Z,66.10
2023-03-03T11:18:39.238Z,66.20
2023-03-03T11:21:14.614Z,66.10
2023-03-03T11:23:58.969Z,66.20
2023-03-03T11:26:35.530Z,66.20
2023-03-03T11:29:20.540Z,66.20
2023-03-03T11:31:49.638Z,66.20
2023-03-03T11:34:26.342Z,66.20
2023-03-03T11:36:56.397Z,66.20
2023-03-03T11:39:26.688Z,66.20
2023-03-03T11:42:02.551Z,66.20
2023-03-03T11:44:32.201Z,66.20
2023-03-03T11:47:01.416Z,66.20
2023-03-03T11:49:34.603Z,66.20
2023-03-03T11:52:07.469Z,66.30
2023-03-03T11:54:40.165Z,66.20
2023-03-03T11:57:16.527Z,66.20
2023-03-03T11:59:55.557Z,66.30
2023-03-03T12:02:45.105Z,66.30
2023-03-03T12:05:16.635Z,66.30
2023-03-03T12:07:49.046Z,66.30
2023-03-03T12:10:25.897Z,66.20
2023-03-03T12:12:56.739Z,66.30
2023-03-03T12:15:29.129Z,66.30
2023-03-03T12:18:10.796Z,66.30
2023-03-03T12:20:44.243Z,66.30
2023-03-03T12:23:36.986Z,66.30
2023-03-03T12:26:07.199Z,66.30
2023-03-03T12:28:37.456Z,66.30
2023-03-03T12:31:15.509Z,66.30
2023-03-03T12:33:54.100Z,66.40
2023-03-03T12:36:31.956Z,66.40
2023-03-03T12:39:02.328Z,66.40
2023-03-03T12:41:33.623Z,66.40
2023-03-03T12:44:03.905Z,66.40
2023-03-03T12:46:37.291Z,66.40
2023-03-03T12:49:05.514Z,66.40
2023-03-03T12:51:40.755Z,66.40
2023-03-03T12:54:38.361Z,66.40
2023-03-03T12:57:11.626Z,66.40
2023-03-03T12:59:41.963Z,66.50
2023-03-03T13:02:31.139Z,66.40
2023-03-03T13:05:03.453Z,66.40
2023-03-03T13:07:36.282Z,66.50
2023-03-03T13:10:09.477Z,66.50
2023-03-03T13:12:41.860Z,66.50
2023-03-03T13:15:16.368Z,66.60
2023-03-03T13:17:49.986Z,66.50
2023-03-03T13:20:23.232Z,66.50
2023-03-03T13:22:55.850Z,66.50
2023-03-03T13:25:42.162Z,66.50
2023-03-03T13:28:14.973Z,66.60
2023-03-03T13:30:47.501Z,66.60
2023-03-03T13:33:17.094Z,66.50
2023-03-03T13:35:46.391Z,66.50
2023-03-03T13:38:19.058Z,66.60
2023-03-03T13:40:47.543Z,66.60
2023-03-03T13:43:18.923Z,66.60
2023-03-03T13:45:53.014Z,66.60
2023-03-03T13:48:35.973Z,66.60
2023-03-03T13:51:05.426Z,66.70
2023-03-03T13:53:41.688Z,66.60
2023-03-03T13:56:16.638Z,66.70
2023-03-03T13:58:47.183Z,66.70
2023-03-03T14:01:17.325Z,66.70
2023-03-03T14:03:55.515Z,66.70
2023-03-03T14:06:24.779Z,66.70
2023-03-03T14:09:02.153Z,66.70
2023-03-03T14:11:31.699Z,66.70
2023-03-03T14:14:04.403Z,66.70
2023-03-03T14:16:41.654Z,66.70
2023-03-03T14:19:13.253Z,66.80
2023-03-03T14:21:44.284Z,66.80
2023-03-03T14:24:16.761Z,66.70
2023-03-03T14:26:49.715Z,66.70
2023-03-03T14:29:23.496Z,66.70
2023-03-03T14:31:52.058Z,66.80
2023-03-03T14:34:35.496Z,66.80
2023-03-03T14:37:21.007Z,66.80
2023-03-03T14:40:16.314Z,66.80
2023-03-03T14:42:50.473Z,66.80
2023-03-03T14:45:33.548Z,66.90
2023-03-03T14:48:01.750Z,66.80
2023-03-03T14:50:33.287Z,66.80
2023-03-03T14:53:12.120Z,66.80
2023-03-03T14:55:43.089Z,66.90
2023-03-03T14:58:26.691Z,66.90
2023-03-03T15:01:14.706Z,66.90
2023-03-03T15:03:47.953Z,66.90
2023-03-03T15:06:32.504Z,66.90
2023-03-03T15:09:25.896Z,66.90
2023-03-03T15:11:55.629Z,67.10
2023-03-03T15:14:31.616Z,67.00
2023-03-03T15:17:14.711Z,67.00
2023-03-03T15:19:46.965Z,67.10
2023-03-03T15:22:20.363Z,67.10
2023-03-03T15:24:52.704Z,67.10
2023-03-03T15:27:24.392Z,67.10
2023-03-03T15:30:03.462Z,67.10
2023-03-03T15:32:34.705Z,67.10
2023-03-03T15:35:06.022Z,67.10
2023-03-03T15:37:40.325Z,67.20
2023-03-03T15:40:15.534Z,67.10
2023-03-03T15:42:49.228Z,67.20
2023-03-03T15:45:21.377Z,67.20
2023-03-03T15:47:57.999Z,67.20
2023-03-03T15:50:31.488Z,67.30
2023-03-03T15:53:06.364Z,67.30
2023-03-03T15:55:47.634Z,67.30
2023-03-03T15:58:48.402Z,67.30
2023-03-03T16:01:19.492Z,67.30
2023-03-03T16:03:48.852Z,67.30
2023-03-03T16:06:17.848Z,67.30
2023-03-03T16:08:49.682Z,67.40
2023-03-03T16:11:21.225Z,67.40
2023-03-03T16:13:59.392Z,67.40
2023-03-03T16:16:34.695Z,67.40
2023-03-03T16:19:08.229Z,67.40
2023-03-03T16:21:51.341Z,67.40
2023-03-03T16:24:24.801Z,67.40
2023-03-03T16:26:55.142Z,67.50
2023-03-03T16:29:38.271Z,67.50
2023-03-03T16:32:13.215Z,67.50
2023-03-03T16:34:43.989Z,67.50
2023-03-03T16:37:16.237Z,67.50
2023-03-03T16:39:56.506Z,67.50
2023-03-03T16:42:29.186Z,67.50
2023-03-03T16:45:16.407Z,67.60
2023-03-03T16:48:01.838Z,67.60
2023-03-03T16:50:32.637Z,67.60
2023-03-03T16:53:03.602Z,67.60
2023-03-03T16:55:33.232Z,67.60
2023-03-03T16:58:07.298Z,67.80
2023-03-03T17:00:40.319Z,67.60
2023-03-03T17:03:19.740Z,67.60
2023-03-03T17:05:51.390Z,67.80
2023-03-03T17:08:27.951Z,67.80
2023-03-03T17:10:59.329Z,67.80
2023-03-03T17:13:56.224Z,67.80
2023-03-03T17:16:33.249Z,67.80
2023-03-03T17:19:14.270Z,67.80
2023-03-03T17:21:52.785Z,67.80
2023-03-03T17:24:23.390Z,67.80
2023-03-03T17:26:58.168Z,67.80
2023-03-03T17:29:35.500Z,67.90
2023-03-03T17:32:12.357Z,67.80
2023-03-03T17:34:45.657Z,67.90
2023-03-03T17:37:21.941Z,67.90
2023-03-03T17:40:04.928Z,67.90
2023-03-03T17:42:38.134Z,67.80
2023-03-03T17:45:09.351Z,67.90
2023-03-03T17:47:52.301Z,67.90
2023-03-03T17:50:30.325Z,67.90
2023-03-03T17:53:19.814Z,67.90
2023-03-03T17:55:53.947Z,67.90
2023-03-03T17:58:44.889Z,67.90
2023-03-03T18:01:19.090Z,67.90
2023-03-03T18:04:29.674Z,67.90
2023-03-03T18:07:19.547Z,67.90
2023-03-03T18:10:08.336Z,67.90
2023-03-03T18:12:39.287Z,67.90
2023-03-03T18:15:28.892Z,67.90
2023-03-03T18:18:04.778Z,67.90
2023-03-03T18:20:45.565Z,67.90
2023-03-03T18:23:35.175Z,67.90
2023-03-03T18:26:03.469Z,67.90
2023-03-03T18:28:44.480Z,67.90
2023-03-03T18:31:21.156Z,67.90
2023-03-03T18:34:03.669Z,67.90
2023-03-03T18:36:40.482Z,67.90
2023-03-03T18:39:10.693Z,67.90
2023-03-03T18:42:05.231Z,67.90
2023-03-03T18:44:33.293Z,67.90
2023-03-03T18:47:01.331Z,67.90
2023-03-03T18:49:55.705Z,67.80
2023-03-03T18:52:29.272Z,67.80
2023-03-03T18:55:19.931Z,67.90
2023-03-03T18:58:29.549Z,67.80
2023-03-03T19:00:59.881Z,67.80
2023-03-03T19:03:34.231Z,67.80
2023-03-03T19:06:02.749Z,67.90
2023-03-03T19:08:46.569Z,67.90
2023-03-03T19:11:33.501Z,67.90
2023-03-03T19:14:25.641Z,67.90
2023-03-03T19:16:53.766Z,67.80
2023-03-03T19:19:22.580Z,67.80
2023-03-03T19:21:52.191Z,67.80
2023-03-03T19:24:29.232Z,67.80
2023-03-03T19:27:18.106Z,67.80
2023-03-03T19:30:28.046Z,67.80
2023-03-03T19:33:22.047Z,67.80
2023-03-03T19:36:25.672Z,67.80
2023-03-03T19:39:02.959Z,67.80
2023-03-03T19:41:43.689Z,67.80
2023-03-03T19:44:19.911Z,67.80
2023-03-03T19:46:55.101Z,67.80
2023-03-03T19:49:28.989Z,67.80
2023-03-03T19:52:00.726Z,67.80
2023-03-03T19:54:52.467Z,67.80
2023-03-03T19:57:27.894Z,67.80
2023-03-03T19:59:57.469Z,67.80
2023-03-03T20:02:38.149Z,67.80
2023-03-03T20:05:09.683Z,67.80
2023-03-03T20:07:41.820Z,67.80
2023-03-03T20:10:23.311Z,67.80
2023-03-03T20:13:03.769Z,67.80
2023-03-03T20:15:39.724Z,67.80
2023-03-03T20:18:36.620Z,67.80
2023-03-03T20:21:21.082Z,67.80
2023-03-03T20:23:58.059Z,67.80
2023-03-03T20:26:31.385Z,67.80
2023-03-03T20:29:16.315Z,67.80
2023-03-03T20:31:50.051Z,67.80
2023-03-03T20:34:21.249Z,67.80
2023-03-03T20:36:57.441Z,67.80
2023-03-03T20:39:35.545Z,67.80
2023-03-03T20:42:08.903Z,67.80
2023-03-03T20:44:50.169Z,67.80
2023-03-03T20:47:22.029Z,67.80
2023-03-03T20:49:57.577Z,67.80
2023-03-03T20:52:30.940Z,67.80
2023-03-03T20:55:02.629Z,67.80
2023-03-03T20:57:35.047Z,67.80
2023-03-03T21:00:06.011Z,67.80
2023-03-03T21:02:36.533Z,67.80
2023-03-03T21:05:13.966Z,67.80
2023-03-03T21:07:51.994Z,67.80
2023-03-03T21:10:24.091Z,67.80
2023-03-03T21:12:53.834Z,67.80
2023-03-03T21:15:28.233Z,67.80
2023-03-03T21:17:57.598Z,67.80
2023-03-03T21:20:30.793Z,67.60
2023-03-03T21:22:59.243Z,67.60
2023-03-03T21:25:52.204Z,67.80
2023-03-03T21:28:22.155Z,67.80
2023-03-03T21:31:14.250Z,67.80
2023-03-03T21:33:52.980Z,67.80
2023-03-03T21:36:23.310Z,67.80
2023-03-03T21:38:51.761Z,67.60
2023-03-03T21:41:19.821Z,67.80
2023-03-03T21:43:48.637Z,67.80
2023-03-03T21:46:20.553Z,67.80
2023-03-03T21:48:48.782Z,67.80
2023-03-03T21:51:16.933Z,67.80
2023-03-03T21:53:45.736Z,67.80
2023-03-03T21:56:14.155Z,67.80
2023-03-03T21:58:42.314Z,67.80
2023-03-03T22:01:10.466Z,67.80
2023-03-03T22:03:40.686Z,67.80
2023-03-03T22:06:08.971Z,67.80
2023-03-03T22:08:37.018Z,67.60
2023-03-03T22:11:10.934Z,67.80
2023-03-03T22:13:39.981Z,67.80
2023-03-03T22:16:08.804Z,67.80
2023-03-03T22:18:36.897Z,67.80
2023-03-03T22:21:06.882Z,67.80
2023-03-03T22:23:34.927Z,67.80
2023-03-03T22:26:03.113Z,67.80
2023-03-03T22:28:31.137Z,67.80
2023-03-03T22:30:59.217Z,67.80
2023-03-03T22:33:27.310Z,67.80
2023-03-03T22:35:55.362Z,67.80
2023-03-03T22:38:25.213Z,67.80
2023-03-03T22:40:54.361Z,67.80
2023-03-03T22:43:22.428Z,67.80
2023-03-03T22:45:50.890Z,67.80
2023-03-03T22:48:19.004Z,67.80
2023-03-03T22:50:47.518Z,67.80
2023-03-03T22:53:15.567Z,67.80
2023-03-03T22:55:44.984Z,67.90
2023-03-03T22:58:13.119Z,67.80
2023-03-03T23:00:41.817Z,67.80
2023-03-03T23:03:10.659Z,67.80
2023-03-03T23:05:39.136Z,67.80
2023-03-03T23:08:08.588Z,67.90
2023-03-03T23:10:36.636Z,67.90
2023-03-03T23:13:06.066Z,67.90
2023-03-03T23:15:34.098Z,67.90
2023-03-03T23:18:02.118Z,67.90
2023-03-03T23:20:30.790Z,67.90
2023-03-03T23:22:58.903Z,67.90
2023-03-03T23:25:28.767Z,67.90
2023-03-03T23:27:56.976Z,67.90
2023-03-03T23:30:30.452Z,67.90
2023-03-03T23:32:58.492Z,67.90
2023-03-03T23:35:26.566Z,67.90
2023-03-03T23:37:54.591Z,67.90
2023-03-03T23:40:22.785Z,67.90
2023-03-03T23:42:50.844Z,67.90
2023-03-03T23:45:18.983Z,67.90
2023-03-03T23:47:48.411Z,67.90
2023-03-03T23:50:16.431Z,67.90
2023-03-03T23:52:44.459Z,67.90
2023-03-03T23:55:17.162Z,67.90
2023-03-03T23:57:45.159Z,67.90
